sensor_id;sensor_type;location;lat;lon;timestamp;temperature;humidity
12287;DHT22;6206;53.100;11.098;2023-02-28T00:01:43;2.20;99.90
12287;DHT22;6206;53.100;11.098;2023-02-28T00:04:09;2.20;99.90
12287;DHT22;6206;53.100;11.098;2023-02-28T00:06:36;2.20;99.90
12287;DHT22;6206;53.100;11.098;2023-02-28T00:09:02;2.20;99.90
12287;DHT22;6206;53.100;11.098;2023-02-28T00:13:56;2.20;99.90
12287;DHT22;6206;53.100;11.098;2023-02-28T00:16:22;2.20;99.90
12287;DHT22;6206;53.100;11.098;2023-02-28T00:18:50;2.20;99.90
12287;DHT22;6206;53.100;11.098;2023-02-28T00:21:17;2.10;99.90
12287;DHT22;6206;53.100;11.098;2023-02-28T00:23:43;2.00;99.90
12287;DHT22;6206;53.100;11.098;2023-02-28T00:28:37;2.00;99.90
12287;DHT22;6206;53.100;11.098;2023-02-28T00:33:30;2.00;99.90
12287;DHT22;6206;53.100;11.098;2023-02-28T00:36:02;2.00;99.90
12287;DHT22;6206;53.100;11.098;2023-02-28T00:38:29;2.00;99.90
12287;DHT22;6206;53.100;11.098;2023-02-28T00:40:56;2.00;99.90
12287;DHT22;6206;53.100;11.098;2023-02-28T00:43:23;2.00;99.90
12287;DHT22;6206;53.100;11.098;2023-02-28T00:45:50;1.90;99.90
12287;DHT22;6206;53.100;11.098;2023-02-28T00:50:43;1.90;99.90
12287;DHT22;6206;53.100;11.098;2023-02-28T00:53:13;1.80;99.90
12287;DHT22;6206;53.100;11.098;2023-02-28T00:55:39;1.80;99.90
12287;DHT22;6206;53.100;11.098;2023-02-28T00:58:05;1.80;99.90
12287;DHT22;6206;53.100;11.098;2023-02-28T01:00:32;1.80;99.90
12287;DHT22;6206;53.100;11.098;2023-02-28T01:02:58;1.80;99.90
12287;DHT22;6206;53.100;11.098;2023-02-28T01:05:25;1.80;99.90
12287;DHT22;6206;53.100;11.098;2023-02-28T01:07:52;1.80;99.90
12287;DHT22;6206;53.100;11.098;2023-02-28T01:10:20;1.80;99.90
12287;DHT22;6206;53.100;11.098;2023-02-28T01:12:46;1.80;99.90
12287;DHT22;6206;53.100;11.098;2023-02-28T01:15:13;1.80;99.90
12287;DHT22;6206;53.100;11.098;2023-02-28T01:20:06;1.60;99.90
12287;DHT22;6206;53.100;11.098;2023-02-28T01:27:28;1.40;99.90
12287;DHT22;6206;53.100;11.098;2023-02-28T01:32:22;1.10;99.90
12287;DHT22;6206;53.100;11.098;2023-02-28T01:34:48;1.10;99.90
12287;DHT22;6206;53.100;11.098;2023-02-28T01:37:15;1.10;99.90
12287;DHT22;6206;53.100;11.098;2023-02-28T01:47:21;1.20;99.90
12287;DHT22;6206;53.100;11.098;2023-02-28T01:49:48;1.10;99.90
12287;DHT22;6206;53.100;11.098;2023-02-28T01:52:16;1.00;99.90
12287;DHT22;6206;53.100;11.098;2023-02-28T01:54:44;1.10;99.90
12287;DHT22;6206;53.100;11.098;2023-02-28T01:57:12;1.30;99.90
12287;DHT22;6206;53.100;11.098;2023-02-28T01:59:42;1.30;99.90
12287;DHT22;6206;53.100;11.098;2023-02-28T02:02:11;1.40;99.90
12287;DHT22;6206;53.100;11.098;2023-02-28T02:04:40;1.40;99.90
12287;DHT22;6206;53.100;11.098;2023-02-28T02:07:08;1.40;99.90
12287;DHT22;6206;53.100;11.098;2023-02-28T02:09:35;1.40;99.90
12287;DHT22;6206;53.100;11.098;2023-02-28T02:12:02;1.40;99.90
12287;DHT22;6206;53.100;11.098;2023-02-28T02:14:40;1.40;99.90
12287;DHT22;6206;53.100;11.098;2023-02-28T02:17:13;1.30;99.90
12287;DHT22;6206;53.100;11.098;2023-02-28T02:19:50;1.30;99.90
12287;DHT22;6206;53.100;11.098;2023-02-28T02:27:16;1.30;99.90
12287;DHT22;6206;53.100;11.098;2023-02-28T02:29:50;1.40;99.90
12287;DHT22;6206;53.100;11.098;2023-02-28T02:32:28;1.40;99.90
12287;DHT22;6206;53.100;11.098;2023-02-28T02:35:01;1.50;99.90
12287;DHT22;6206;53.100;11.098;2023-02-28T02:39:59;1.50;99.90
12287;DHT22;6206;53.100;11.098;2023-02-28T02:42:27;1.40;99.90
12287;DHT22;6206;53.100;11.098;2023-02-28T02:44:56;1.40;99.90
12287;DHT22;6206;53.100;11.098;2023-02-28T02:47:26;1.40;99.90
12287;DHT22;6206;53.100;11.098;2023-02-28T02:49:55;1.40;99.90
12287;DHT22;6206;53.100;11.098;2023-02-28T02:54:50;1.20;99.90
12287;DHT22;6206;53.100;11.098;2023-02-28T02:57:20;1.10;99.90
12287;DHT22;6206;53.100;11.098;2023-02-28T02:59:48;1.10;99.90
12287;DHT22;6206;53.100;11.098;2023-02-28T03:02:16;1.10;99.90
12287;DHT22;6206;53.100;11.098;2023-02-28T03:04:45;1.20;99.90
12287;DHT22;6206;53.100;11.098;2023-02-28T03:07:12;1.30;99.90
12287;DHT22;6206;53.100;11.098;2023-02-28T03:12:08;1.40;99.90
12287;DHT22;6206;53.100;11.098;2023-02-28T03:14:39;1.50;99.90
12287;DHT22;6206;53.100;11.098;2023-02-28T03:17:21;1.40;99.90
12287;DHT22;6206;53.100;11.098;2023-02-28T03:19:55;1.40;99.90
12287;DHT22;6206;53.100;11.098;2023-02-28T03:22:26;1.30;99.90
12287;DHT22;6206;53.100;11.098;2023-02-28T03:24:56;1.30;99.90
12287;DHT22;6206;53.100;11.098;2023-02-28T03:29:53;1.30;99.90
12287;DHT22;6206;53.100;11.098;2023-02-28T03:32:22;1.30;99.90
12287;DHT22;6206;53.100;11.098;2023-02-28T03:34:50;1.20;99.90
12287;DHT22;6206;53.100;11.098;2023-02-28T03:39:45;1.20;99.90
12287;DHT22;6206;53.100;11.098;2023-02-28T03:42:14;1.20;99.90
12287;DHT22;6206;53.100;11.098;2023-02-28T03:44:42;1.20;99.90
12287;DHT22;6206;53.100;11.098;2023-02-28T03:47:12;1.20;99.90
12287;DHT22;6206;53.100;11.098;2023-02-28T03:49:40;1.20;99.90
12287;DHT22;6206;53.100;11.098;2023-02-28T03:54:37;1.20;99.90
12287;DHT22;6206;53.100;11.098;2023-02-28T03:57:07;1.20;99.90
12287;DHT22;6206;53.100;11.098;2023-02-28T04:04:31;1.20;99.90
12287;DHT22;6206;53.100;11.098;2023-02-28T04:09:24;1.10;99.90
12287;DHT22;6206;53.100;11.098;2023-02-28T04:11:51;1.10;99.90
12287;DHT22;6206;53.100;11.098;2023-02-28T04:14:18;1.00;99.90
12287;DHT22;6206;53.100;11.098;2023-02-28T04:16:44;0.90;99.90
12287;DHT22;6206;53.100;11.098;2023-02-28T04:19:12;0.90;99.90
12287;DHT22;6206;53.100;11.098;2023-02-28T04:24:08;0.80;99.90
12287;DHT22;6206;53.100;11.098;2023-02-28T04:26:39;0.70;99.90
12287;DHT22;6206;53.100;11.098;2023-02-28T04:29:06;0.70;99.90
12287;DHT22;6206;53.100;11.098;2023-02-28T04:33:59;0.70;99.90
12287;DHT22;6206;53.100;11.098;2023-02-28T04:36:26;0.70;99.90
12287;DHT22;6206;53.100;11.098;2023-02-28T04:38:53;0.80;99.90
12287;DHT22;6206;53.100;11.098;2023-02-28T04:41:21;0.70;99.90
12287;DHT22;6206;53.100;11.098;2023-02-28T04:43:47;0.70;99.90
12287;DHT22;6206;53.100;11.098;2023-02-28T04:46:14;0.70;99.90
12287;DHT22;6206;53.100;11.098;2023-02-28T04:48:41;0.70;99.90
12287;DHT22;6206;53.100;11.098;2023-02-28T04:51:09;0.60;99.90
12287;DHT22;6206;53.100;11.098;2023-02-28T04:53:36;0.60;99.90
12287;DHT22;6206;53.100;11.098;2023-02-28T04:56:03;0.50;99.90
12287;DHT22;6206;53.100;11.098;2023-02-28T04:58:31;0.50;99.90
12287;DHT22;6206;53.100;11.098;2023-02-28T05:01:01;0.50;99.90
12287;DHT22;6206;53.100;11.098;2023-02-28T05:03:28;0.50;99.90
12287;DHT22;6206;53.100;11.098;2023-02-28T05:05:54;0.50;99.90
12287;DHT22;6206;53.100;11.098;2023-02-28T05:08:21;0.50;99.90
12287;DHT22;6206;53.100;11.098;2023-02-28T05:10:47;0.50;99.90
12287;DHT22;6206;53.100;11.098;2023-02-28T05:13:14;0.40;99.90
12287;DHT22;6206;53.100;11.098;2023-02-28T05:20:35;0.30;99.90
12287;DHT22;6206;53.100;11.098;2023-02-28T05:25:29;0.30;99.90
12287;DHT22;6206;53.100;11.098;2023-02-28T05:27:56;0.40;99.90
12287;DHT22;6206;53.100;11.098;2023-02-28T05:30:22;0.40;99.90
12287;DHT22;6206;53.100;11.098;2023-02-28T05:32:49;0.50;99.90
12287;DHT22;6206;53.100;11.098;2023-02-28T05:35:16;0.40;99.90
12287;DHT22;6206;53.100;11.098;2023-02-28T05:37:44;0.30;99.90
12287;DHT22;6206;53.100;11.098;2023-02-28T05:40:11;0.20;99.90
12287;DHT22;6206;53.100;11.098;2023-02-28T05:42:38;0.10;99.90
12287;DHT22;6206;53.100;11.098;2023-02-28T05:45:05;0.00;99.90
12287;DHT22;6206;53.100;11.098;2023-02-28T05:47:32;0.10;99.90
12287;DHT22;6206;53.100;11.098;2023-02-28T05:52:26;0.30;99.90
12287;DHT22;6206;53.100;11.098;2023-02-28T05:54:54;0.30;99.90
12287;DHT22;6206;53.100;11.098;2023-02-28T05:59:47;0.20;99.90
12287;DHT22;6206;53.100;11.098;2023-02-28T06:04:40;0.30;99.90
12287;DHT22;6206;53.100;11.098;2023-02-28T06:07:07;0.30;99.90
12287;DHT22;6206;53.100;11.098;2023-02-28T06:09:33;0.20;99.90
12287;DHT22;6206;53.100;11.098;2023-02-28T06:14:30;0.20;99.90
12287;DHT22;6206;53.100;11.098;2023-02-28T06:16:56;0.10;99.90
12287;DHT22;6206;53.100;11.098;2023-02-28T06:19:23;0.10;99.90
12287;DHT22;6206;53.100;11.098;2023-02-28T06:21:50;0.10;99.90
12287;DHT22;6206;53.100;11.098;2023-02-28T06:26:44;0.20;99.90
12287;DHT22;6206;53.100;11.098;2023-02-28T06:29:11;0.00;99.90
12287;DHT22;6206;53.100;11.098;2023-02-28T06:34:06;-0.20;99.90
12287;DHT22;6206;53.100;11.098;2023-02-28T06:38:59;0.00;99.90
12287;DHT22;6206;53.100;11.098;2023-02-28T06:41:26;0.10;99.90
12287;DHT22;6206;53.100;11.098;2023-02-28T06:43:53;0.20;99.90
12287;DHT22;6206;53.100;11.098;2023-02-28T06:48:46;0.20;99.90
12287;DHT22;6206;53.100;11.098;2023-02-28T06:51:14;0.20;99.90
12287;DHT22;6206;53.100;11.098;2023-02-28T06:56:09;0.20;99.90
12287;DHT22;6206;53.100;11.098;2023-02-28T06:58:36;0.30;99.90
12287;DHT22;6206;53.100;11.098;2023-02-28T07:01:03;0.40;99.90
12287;DHT22;6206;53.100;11.098;2023-02-28T07:03:29;0.40;99.90
12287;DHT22;6206;53.100;11.098;2023-02-28T07:05:56;0.40;99.90
12287;DHT22;6206;53.100;11.098;2023-02-28T07:08:24;0.40;99.90
12287;DHT22;6206;53.100;11.098;2023-02-28T07:10:52;0.30;99.90
12287;DHT22;6206;53.100;11.098;2023-02-28T07:13:18;0.30;99.90
12287;DHT22;6206;53.100;11.098;2023-02-28T07:15:52;0.20;99.90
12287;DHT22;6206;53.100;11.098;2023-02-28T07:20:45;0.10;99.90
12287;DHT22;6206;53.100;11.098;2023-02-28T07:23:12;0.10;99.90
12287;DHT22;6206;53.100;11.098;2023-02-28T07:25:40;0.10;99.90
12287;DHT22;6206;53.100;11.098;2023-02-28T07:28:06;0.10;99.90
12287;DHT22;6206;53.100;11.098;2023-02-28T07:35:26;0.50;99.90
12287;DHT22;6206;53.100;11.098;2023-02-28T07:40:20;0.50;99.90
12287;DHT22;6206;53.100;11.098;2023-02-28T07:45:14;0.50;99.90
12287;DHT22;6206;53.100;11.098;2023-02-28T07:50:08;0.60;99.90
12287;DHT22;6206;53.100;11.098;2023-02-28T07:52:35;0.70;99.90
12287;DHT22;6206;53.100;11.098;2023-02-28T07:57:29;0.80;99.90
12287;DHT22;6206;53.100;11.098;2023-02-28T07:59:56;0.90;99.90
12287;DHT22;6206;53.100;11.098;2023-02-28T08:02:24;0.90;99.90
12287;DHT22;6206;53.100;11.098;2023-02-28T08:04:50;1.00;99.90
12287;DHT22;6206;53.100;11.098;2023-02-28T08:09:44;1.10;99.90
12287;DHT22;6206;53.100;11.098;2023-02-28T08:12:11;1.20;99.90
12287;DHT22;6206;53.100;11.098;2023-02-28T08:19:32;1.60;99.90
12287;DHT22;6206;53.100;11.098;2023-02-28T08:21:59;1.70;99.90
12287;DHT22;6206;53.100;11.098;2023-02-28T08:24:25;1.90;99.90
12287;DHT22;6206;53.100;11.098;2023-02-28T08:26:52;2.00;99.90
12287;DHT22;6206;53.100;11.098;2023-02-28T08:29:18;2.10;99.90
12287;DHT22;6206;53.100;11.098;2023-02-28T08:31:45;2.10;99.90
12287;DHT22;6206;53.100;11.098;2023-02-28T08:34:12;2.20;99.90
12287;DHT22;6206;53.100;11.098;2023-02-28T08:36:40;2.30;99.90
12287;DHT22;6206;53.100;11.098;2023-02-28T08:39:07;2.40;99.90
12287;DHT22;6206;53.100;11.098;2023-02-28T08:41:34;2.50;99.90
12287;DHT22;6206;53.100;11.098;2023-02-28T08:44:01;2.50;99.90
12287;DHT22;6206;53.100;11.098;2023-02-28T08:46:27;2.60;99.90
12287;DHT22;6206;53.100;11.098;2023-02-28T09:31:25;2.10;99.90
12287;DHT22;6206;53.100;11.098;2023-02-28T09:33:53;2.30;99.90
12287;DHT22;6206;53.100;11.098;2023-02-28T09:36:20;2.70;99.90
12287;DHT22;6206;53.100;11.098;2023-02-28T09:38:47;3.00;99.90
12287;DHT22;6206;53.100;11.098;2023-02-28T09:41:17;3.20;99.90
12287;DHT22;6206;53.100;11.098;2023-02-28T09:43:45;3.50;99.90
12287;DHT22;6206;53.100;11.098;2023-02-28T09:46:14;3.70;99.90
12287;DHT22;6206;53.100;11.098;2023-02-28T09:48:47;4.00;99.90
12287;DHT22;6206;53.100;11.098;2023-02-28T09:51:16;4.30;99.90
12287;DHT22;6206;53.100;11.098;2023-02-28T09:53:46;4.40;99.90
12287;DHT22;6206;53.100;11.098;2023-02-28T09:56:15;4.60;99.90
12287;DHT22;6206;53.100;11.098;2023-02-28T10:01:12;4.80;99.90
12287;DHT22;6206;53.100;11.098;2023-02-28T10:03:47;4.90;99.90
12287;DHT22;6206;53.100;11.098;2023-02-28T10:06:17;5.00;99.90
12287;DHT22;6206;53.100;11.098;2023-02-28T10:08:47;5.00;99.90
12287;DHT22;6206;53.100;11.098;2023-02-28T10:11:16;5.10;99.90
12287;DHT22;6206;53.100;11.098;2023-02-28T10:28:31;5.60;99.90
12287;DHT22;6206;53.100;11.098;2023-02-28T10:30:58;5.60;99.90
12287;DHT22;6206;53.100;11.098;2023-02-28T10:33:26;5.60;99.90
12287;DHT22;6206;53.100;11.098;2023-02-28T10:35:53;5.70;99.90
12287;DHT22;6206;53.100;11.098;2023-02-28T10:38:20;5.80;99.90
12287;DHT22;6206;53.100;11.098;2023-02-28T10:40:47;5.80;99.90
12287;DHT22;6206;53.100;11.098;2023-02-28T10:43:20;5.80;99.90
12287;DHT22;6206;53.100;11.098;2023-02-28T10:48:26;5.80;99.90
12287;DHT22;6206;53.100;11.098;2023-02-28T10:50:53;5.90;99.90
12287;DHT22;6206;53.100;11.098;2023-02-28T10:55:55;6.00;99.90
12287;DHT22;6206;53.100;11.098;2023-02-28T10:58:22;6.00;99.90
12287;DHT22;6206;53.100;11.098;2023-02-28T11:00:50;6.00;99.90
12287;DHT22;6206;53.100;11.098;2023-02-28T11:03:24;6.10;99.90
12287;DHT22;6206;53.100;11.098;2023-02-28T11:05:52;6.20;99.90
12287;DHT22;6206;53.100;11.098;2023-02-28T11:08:18;6.20;99.90
12287;DHT22;6206;53.100;11.098;2023-02-28T11:10:45;6.40;99.90
12287;DHT22;6206;53.100;11.098;2023-02-28T11:18:20;6.50;99.90
12287;DHT22;6206;53.100;11.098;2023-02-28T11:20:47;6.50;99.90
12287;DHT22;6206;53.100;11.098;2023-02-28T11:23:16;6.50;99.90
12287;DHT22;6206;53.100;11.098;2023-02-28T11:25:46;6.50;99.90
12287;DHT22;6206;53.100;11.098;2023-02-28T11:28:23;6.50;99.90
12287;DHT22;6206;53.100;11.098;2023-02-28T11:30:59;6.60;99.90
12287;DHT22;6206;53.100;11.098;2023-02-28T11:33:27;6.60;99.90
12287;DHT22;6206;53.100;11.098;2023-02-28T11:35:54;6.50;99.90
12287;DHT22;6206;53.100;11.098;2023-02-28T11:38:23;6.60;99.90
12287;DHT22;6206;53.100;11.098;2023-02-28T11:40:52;6.60;99.90
12287;DHT22;6206;53.100;11.098;2023-02-28T11:43:27;6.60;99.90
12287;DHT22;6206;53.100;11.098;2023-02-28T11:45:57;6.60;99.90
12287;DHT22;6206;53.100;11.098;2023-02-28T11:48:27;6.70;99.90
12287;DHT22;6206;53.100;11.098;2023-02-28T11:50:58;6.70;99.90
12287;DHT22;6206;53.100;11.098;2023-02-28T11:53:33;6.70;99.90
12287;DHT22;6206;53.100;11.098;2023-02-28T11:56:03;6.70;99.90
12287;DHT22;6206;53.100;11.098;2023-02-28T11:58:38;6.70;99.90
12287;DHT22;6206;53.100;11.098;2023-02-28T12:01:09;6.70;99.90
12287;DHT22;6206;53.100;11.098;2023-02-28T12:03:42;6.70;99.90
12287;DHT22;6206;53.100;11.098;2023-02-28T12:06:14;6.80;99.90
12287;DHT22;6206;53.100;11.098;2023-02-28T12:08:47;6.80;99.90
12287;DHT22;6206;53.100;11.098;2023-02-28T12:11:18;6.80;99.90
12287;DHT22;6206;53.100;11.098;2023-02-28T12:13:46;6.80;99.90
12287;DHT22;6206;53.100;11.098;2023-02-28T12:16:25;6.70;99.90
12287;DHT22;6206;53.100;11.098;2023-02-28T12:18:57;6.60;99.90
12287;DHT22;6206;53.100;11.098;2023-02-28T12:21:27;9.30;99.90
12287;DHT22;6206;53.100;11.098;2023-02-28T12:24:01;7.90;99.90
12287;DHT22;6206;53.100;11.098;2023-02-28T12:26:35;6.70;99.90
12287;DHT22;6206;53.100;11.098;2023-02-28T12:29:04;6.80;99.90
12287;DHT22;6206;53.100;11.098;2023-02-28T12:31:33;6.80;99.90
12287;DHT22;6206;53.100;11.098;2023-02-28T12:34:03;6.90;99.90
12287;DHT22;6206;53.100;11.098;2023-02-28T12:36:31;6.90;99.90
12287;DHT22;6206;53.100;11.098;2023-02-28T12:39:00;6.90;99.90
12287;DHT22;6206;53.100;11.098;2023-02-28T12:41:29;7.40;99.90
12287;DHT22;6206;53.100;11.098;2023-02-28T12:43:58;7.40;99.90
12287;DHT22;6206;53.100;11.098;2023-02-28T12:46:28;7.30;99.90
12287;DHT22;6206;53.100;11.098;2023-02-28T12:48:56;7.20;99.90
12287;DHT22;6206;53.100;11.098;2023-02-28T12:51:23;7.10;99.90
12287;DHT22;6206;53.100;11.098;2023-02-28T12:53:53;7.10;99.90
12287;DHT22;6206;53.100;11.098;2023-02-28T12:56:22;7.00;99.90
12287;DHT22;6206;53.100;11.098;2023-02-28T12:58:54;6.90;99.90
12287;DHT22;6206;53.100;11.098;2023-02-28T13:01:34;6.80;99.90
12287;DHT22;6206;53.100;11.098;2023-02-28T13:04:16;6.90;99.90
12287;DHT22;6206;53.100;11.098;2023-02-28T13:06:51;6.90;99.90
12287;DHT22;6206;53.100;11.098;2023-02-28T13:09:21;6.90;99.90
12287;DHT22;6206;53.100;11.098;2023-02-28T13:11:50;6.90;99.90
12287;DHT22;6206;53.100;11.098;2023-02-28T13:14:23;7.00;99.90
12287;DHT22;6206;53.100;11.098;2023-02-28T13:16:58;7.10;99.90
12287;DHT22;6206;53.100;11.098;2023-02-28T13:19:26;7.00;99.90
12287;DHT22;6206;53.100;11.098;2023-02-28T13:21:53;7.10;99.90
12287;DHT22;6206;53.100;11.098;2023-02-28T13:24:37;7.10;99.90
12287;DHT22;6206;53.100;11.098;2023-02-28T13:27:11;7.10;99.90
12287;DHT22;6206;53.100;11.098;2023-02-28T13:29:40;7.10;99.90
12287;DHT22;6206;53.100;11.098;2023-02-28T13:32:30;7.10;99.90
12287;DHT22;6206;53.100;11.098;2023-02-28T13:37:43;7.30;99.90
12287;DHT22;6206;53.100;11.098;2023-02-28T13:40:26;7.30;99.90
12287;DHT22;6206;53.100;11.098;2023-02-28T13:42:53;7.40;99.90
12287;DHT22;6206;53.100;11.098;2023-02-28T13:45:23;7.50;99.90
12287;DHT22;6206;53.100;11.098;2023-02-28T13:47:53;7.50;99.90
12287;DHT22;6206;53.100;11.098;2023-02-28T13:50:22;7.60;99.90
12287;DHT22;6206;53.100;11.098;2023-02-28T13:52:52;7.60;99.90
12287;DHT22;6206;53.100;11.098;2023-02-28T13:55:24;7.60;99.90
12287;DHT22;6206;53.100;11.098;2023-02-28T13:57:58;7.50;99.90
12287;DHT22;6206;53.100;11.098;2023-02-28T14:00:31;7.50;99.90
12287;DHT22;6206;53.100;11.098;2023-02-28T14:03:10;7.60;99.90
12287;DHT22;6206;53.100;11.098;2023-02-28T14:05:41;7.60;99.90
12287;DHT22;6206;53.100;11.098;2023-02-28T14:08:08;7.60;99.90
12287;DHT22;6206;53.100;11.098;2023-02-28T14:10:41;7.70;99.90
12287;DHT22;6206;53.100;11.098;2023-02-28T14:13:14;7.80;99.90
12287;DHT22;6206;53.100;11.098;2023-02-28T14:15:44;7.80;99.90
12287;DHT22;6206;53.100;11.098;2023-02-28T14:18:20;7.80;99.90
12287;DHT22;6206;53.100;11.098;2023-02-28T14:20:47;7.80;99.90
12287;DHT22;6206;53.100;11.098;2023-02-28T14:23:17;7.80;99.90
12287;DHT22;6206;53.100;11.098;2023-02-28T14:25:47;7.80;99.90
12287;DHT22;6206;53.100;11.098;2023-02-28T14:28:21;7.80;99.90
12287;DHT22;6206;53.100;11.098;2023-02-28T14:31:01;7.80;99.90
12287;DHT22;6206;53.100;11.098;2023-02-28T14:36:21;7.90;99.90
12287;DHT22;6206;53.100;11.098;2023-02-28T14:38:50;7.90;99.90
12287;DHT22;6206;53.100;11.098;2023-02-28T14:41:19;7.90;99.90
12287;DHT22;6206;53.100;11.098;2023-02-28T14:43:54;7.90;99.90
12287;DHT22;6206;53.100;11.098;2023-02-28T14:46:22;8.00;99.90
12287;DHT22;6206;53.100;11.098;2023-02-28T14:48:49;8.00;99.90
12287;DHT22;6206;53.100;11.098;2023-02-28T14:51:19;8.00;99.90
12287;DHT22;6206;53.100;11.098;2023-02-28T14:53:48;7.90;99.90
12287;DHT22;6206;53.100;11.098;2023-02-28T14:56:19;7.80;99.90
12287;DHT22;6206;53.100;11.098;2023-02-28T14:58:50;7.80;99.90
12287;DHT22;6206;53.100;11.098;2023-02-28T15:01:18;7.80;99.90
12287;DHT22;6206;53.100;11.098;2023-02-28T15:03:47;7.80;99.90
12287;DHT22;6206;53.100;11.098;2023-02-28T15:06:14;7.80;99.90
12287;DHT22;6206;53.100;11.098;2023-02-28T15:08:42;7.80;99.90
12287;DHT22;6206;53.100;11.098;2023-02-28T15:11:12;7.80;99.90
12287;DHT22;6206;53.100;11.098;2023-02-28T15:13:40;7.80;99.90
12287;DHT22;6206;53.100;11.098;2023-02-28T15:16:08;7.70;99.90
12287;DHT22;6206;53.100;11.098;2023-02-28T15:18:40;7.70;99.90
12287;DHT22;6206;53.100;11.098;2023-02-28T15:21:11;7.60;99.90
12287;DHT22;6206;53.100;11.098;2023-02-28T15:23:38;7.60;99.90
12287;DHT22;6206;53.100;11.098;2023-02-28T15:26:05;7.70;99.90
12287;DHT22;6206;53.100;11.098;2023-02-28T15:28:32;7.70;99.90
12287;DHT22;6206;53.100;11.098;2023-02-28T15:30:59;7.70;99.90
12287;DHT22;6206;53.100;11.098;2023-02-28T15:33:26;7.00;99.90
12287;DHT22;6206;53.100;11.098;2023-02-28T15:36:03;7.60;99.90
12287;DHT22;6206;53.100;11.098;2023-02-28T15:38:33;7.60;99.90
12287;DHT22;6206;53.100;11.098;2023-02-28T15:41:00;7.60;99.90
12287;DHT22;6206;53.100;11.098;2023-02-28T15:43:28;7.60;99.90
12287;DHT22;6206;53.100;11.098;2023-02-28T15:45:56;7.60;99.90
12287;DHT22;6206;53.100;11.098;2023-02-28T15:48:24;7.60;99.90
12287;DHT22;6206;53.100;11.098;2023-02-28T15:50:51;7.60;99.90
12287;DHT22;6206;53.100;11.098;2023-02-28T15:53:19;7.60;99.90
12287;DHT22;6206;53.100;11.098;2023-02-28T15:55:53;7.60;99.90
12287;DHT22;6206;53.100;11.098;2023-02-28T15:58:20;7.60;99.90
12287;DHT22;6206;53.100;11.098;2023-02-28T16:00:59;7.60;99.90
12287;DHT22;6206;53.100;11.098;2023-02-28T16:03:26;7.60;99.90
12287;DHT22;6206;53.100;11.098;2023-02-28T16:06:09;7.60;99.90
12287;DHT22;6206;53.100;11.098;2023-02-28T16:08:36;7.60;99.90
12287;DHT22;6206;53.100;11.098;2023-02-28T16:11:04;7.60;99.90
12287;DHT22;6206;53.100;11.098;2023-02-28T16:13:30;7.60;99.90
12287;DHT22;6206;53.100;11.098;2023-02-28T16:15:56;7.60;99.90
12287;DHT22;6206;53.100;11.098;2023-02-28T16:18:25;7.60;99.90
12287;DHT22;6206;53.100;11.098;2023-02-28T16:20:52;8.00;99.90
12287;DHT22;6206;53.100;11.098;2023-02-28T16:23:18;7.60;99.90
12287;DHT22;6206;53.100;11.098;2023-02-28T16:25:45;7.60;99.90
12287;DHT22;6206;53.100;11.098;2023-02-28T16:28:15;7.60;99.90
12287;DHT22;6206;53.100;11.098;2023-02-28T16:30:44;7.60;99.90
12287;DHT22;6206;53.100;11.098;2023-02-28T16:33:10;7.50;99.90
12287;DHT22;6206;53.100;11.098;2023-02-28T16:35:36;7.50;99.90
12287;DHT22;6206;53.100;11.098;2023-02-28T16:38:03;7.50;99.90
12287;DHT22;6206;53.100;11.098;2023-02-28T16:40:29;7.50;99.90
12287;DHT22;6206;53.100;11.098;2023-02-28T16:43:00;7.50;99.90
12287;DHT22;6206;53.100;11.098;2023-02-28T16:45:28;7.40;99.90
12287;DHT22;6206;53.100;11.098;2023-02-28T16:47:55;7.40;99.90
12287;DHT22;6206;53.100;11.098;2023-02-28T16:50:22;7.30;99.90
12287;DHT22;6206;53.100;11.098;2023-02-28T16:52:49;7.20;99.90
12287;DHT22;6206;53.100;11.098;2023-02-28T16:55:17;7.20;99.90
12287;DHT22;6206;53.100;11.098;2023-02-28T16:57:44;7.10;99.90
12287;DHT22;6206;53.100;11.098;2023-02-28T17:00:13;7.10;99.90
12287;DHT22;6206;53.100;11.098;2023-02-28T17:02:40;7.10;99.90
12287;DHT22;6206;53.100;11.098;2023-02-28T17:05:08;7.00;99.90
12287;DHT22;6206;53.100;11.098;2023-02-28T17:07:35;6.90;99.90
12287;DHT22;6206;53.100;11.098;2023-02-28T17:10:01;6.90;99.90
12287;DHT22;6206;53.100;11.098;2023-02-28T17:12:33;6.90;99.90
12287;DHT22;6206;53.100;11.098;2023-02-28T17:15:00;6.80;99.90
12287;DHT22;6206;53.100;11.098;2023-02-28T17:17:26;6.70;99.90
12287;DHT22;6206;53.100;11.098;2023-02-28T17:19:54;6.70;99.90
12287;DHT22;6206;53.100;11.098;2023-02-28T17:22:21;6.70;99.90
12287;DHT22;6206;53.100;11.098;2023-02-28T17:24:47;6.60;99.90
12287;DHT22;6206;53.100;11.098;2023-02-28T17:27:14;6.60;99.90
12287;DHT22;6206;53.100;11.098;2023-02-28T17:29:40;6.50;99.90
12287;DHT22;6206;53.100;11.098;2023-02-28T17:32:07;6.60;99.90
12287;DHT22;6206;53.100;11.098;2023-02-28T17:34:33;6.50;99.90
12287;DHT22;6206;53.100;11.098;2023-02-28T17:37:01;6.40;99.90
12287;DHT22;6206;53.100;11.098;2023-02-28T17:39:28;6.30;99.90
12287;DHT22;6206;53.100;11.098;2023-02-28T17:41:56;6.30;99.90
12287;DHT22;6206;53.100;11.098;2023-02-28T17:44:23;6.40;99.90
12287;DHT22;6206;53.100;11.098;2023-02-28T17:46:50;6.40;99.90
12287;DHT22;6206;53.100;11.098;2023-02-28T17:49:18;6.20;99.90
12287;DHT22;6206;53.100;11.098;2023-02-28T17:51:44;6.10;99.90
12287;DHT22;6206;53.100;11.098;2023-02-28T17:54:13;6.10;99.90
12287;DHT22;6206;53.100;11.098;2023-02-28T17:56:41;6.10;99.90
12287;DHT22;6206;53.100;11.098;2023-02-28T17:59:08;6.00;99.90
12287;DHT22;6206;53.100;11.098;2023-02-28T18:01:35;5.90;99.90
12287;DHT22;6206;53.100;11.098;2023-02-28T18:04:01;5.90;99.90
12287;DHT22;6206;53.100;11.098;2023-02-28T18:06:35;5.70;99.90
12287;DHT22;6206;53.100;11.098;2023-02-28T18:09:01;5.60;99.90
12287;DHT22;6206;53.100;11.098;2023-02-28T18:11:29;5.90;99.90
12287;DHT22;6206;53.100;11.098;2023-02-28T18:14:06;5.80;99.90
12287;DHT22;6206;53.100;11.098;2023-02-28T18:16:33;6.00;99.90
12287;DHT22;6206;53.100;11.098;2023-02-28T18:19:00;5.40;99.90
12287;DHT22;6206;53.100;11.098;2023-02-28T18:21:27;6.10;99.90
12287;DHT22;6206;53.100;11.098;2023-02-28T18:23:54;5.30;99.90
12287;DHT22;6206;53.100;11.098;2023-02-28T18:26:20;5.70;99.90
12287;DHT22;6206;53.100;11.098;2023-02-28T18:28:48;5.10;99.90
12287;DHT22;6206;53.100;11.098;2023-02-28T18:31:15;5.40;99.90
12287;DHT22;6206;53.100;11.098;2023-02-28T18:33:42;4.90;99.90
12287;DHT22;6206;53.100;11.098;2023-02-28T18:36:08;5.30;99.90
12287;DHT22;6206;53.100;11.098;2023-02-28T18:38:35;4.80;99.90
12287;DHT22;6206;53.100;11.098;2023-02-28T18:41:03;4.70;99.90
12287;DHT22;6206;53.100;11.098;2023-02-28T18:43:32;4.70;99.90
12287;DHT22;6206;53.100;11.098;2023-02-28T18:46:03;5.10;99.90
12287;DHT22;6206;53.100;11.098;2023-02-28T18:48:30;4.50;99.90
12287;DHT22;6206;53.100;11.098;2023-02-28T18:50:57;4.40;99.90
12287;DHT22;6206;53.100;11.098;2023-02-28T18:53:23;4.40;99.90
12287;DHT22;6206;53.100;11.098;2023-02-28T18:55:50;4.50;99.90
12287;DHT22;6206;53.100;11.098;2023-02-28T18:58:16;4.70;99.90
12287;DHT22;6206;53.100;11.098;2023-02-28T19:00:42;4.70;99.90
12287;DHT22;6206;53.100;11.098;2023-02-28T19:03:10;4.00;99.90